createdAt,value
2018-03-16T00:00:21.456Z,30.60
2018-03-16T00:01:21.472Z,32.50
2018-03-16T00:02:21.499Z,31.50
2018-03-16T00:03:21.508Z,32.40
2018-03-16T00:04:21.536Z,33.20
2018-03-16T00:05:21.547Z,32.20
2018-03-16T00:06:21.573Z,33.10
2018-03-16T00:07:21.584Z,32.50
2018-03-16T00:08:21.612Z,33.30
2018-03-16T00:09:21.623Z,32.70
2018-03-16T00:10:21.647Z,31.80
2018-03-16T00:11:21.664Z,34.10
2018-03-16T00:12:21.685Z,33.80
2018-03-16T00:13:21.702Z,34.30
2018-03-16T00:14:21.721Z,33.90
2018-03-16T00:15:21.743Z,34.20
2018-03-16T00:16:21.758Z,34.50
2018-03-16T00:17:21.812Z,34.20
2018-03-16T00:18:21.793Z,35.00
2018-03-16T00:19:21.822Z,34.00
2018-03-16T00:20:21.831Z,34.70
2018-03-16T00:21:21.859Z,35.10
2018-03-16T00:22:21.869Z,35.10
2018-03-16T00:23:21.897Z,35.70
2018-03-16T00:24:21.908Z,34.60
2018-03-16T00:25:21.935Z,34.60
2018-03-16T00:26:21.949Z,33.80
2018-03-16T00:27:21.970Z,34.10
2018-03-16T00:28:21.985Z,34.30
2018-03-16T00:29:22.008Z,34.40
2018-03-16T00:30:22.022Z,34.90
2018-03-16T00:31:22.049Z,34.00
2018-03-16T00:32:22.064Z,34.30
2018-03-16T00:33:22.080Z,35.10
2018-03-16T00:34:22.099Z,35.00
2018-03-16T00:35:22.123Z,35.70
2018-03-16T00:36:22.142Z,35.40
2018-03-16T00:37:22.154Z,36.80
2018-03-16T00:38:22.175Z,36.40
2018-03-16T00:39:22.197Z,36.00
2018-03-16T00:40:22.218Z,37.50
2018-03-16T00:41:22.228Z,35.80
2018-03-16T00:42:22.249Z,35.40
2018-03-16T00:43:22.276Z,35.70
2018-03-16T00:44:22.292Z,35.70
2018-03-16T00:45:22.311Z,37.00
2018-03-16T00:46:22.326Z,35.60
2018-03-16T00:47:22.350Z,35.80
2018-03-16T00:48:22.369Z,37.00
2018-03-16T00:49:22.379Z,35.40
2018-03-16T00:50:22.398Z,36.20
2018-03-16T00:51:22.427Z,35.80
2018-03-16T00:52:22.441Z,34.60
2018-03-16T00:53:22.459Z,35.40
2018-03-16T00:54:22.479Z,34.50
2018-03-16T00:55:22.495Z,37.70
2018-03-16T00:56:22.517Z,35.80
2018-03-16T00:57:22.533Z,36.40
2018-03-16T00:58:22.558Z,36.90
2018-03-16T00:59:22.568Z,35.80
2018-03-16T01:00:22.602Z,35.30
2018-03-16T01:01:22.606Z,34.20
2018-03-16T01:02:22.632Z,35.70
2018-03-16T01:03:22.648Z,36.00
2018-03-16T01:04:22.670Z,34.90
2018-03-16T01:05:22.682Z,35.70
2018-03-16T01:06:22.706Z,36.60
2018-03-16T01:07:22.718Z,35.30
2018-03-16T01:08:22.744Z,37.50
2018-03-16T01:09:22.754Z,35.30
2018-03-16T01:10:22.778Z,37.20
2018-03-16T01:11:22.799Z,35.10
2018-03-16T01:12:22.814Z,36.80
2018-03-16T01:13:22.836Z,37.10
2018-03-16T01:14:22.850Z,36.30
2018-03-16T01:15:22.876Z,36.40
2018-03-16T01:16:22.886Z,36.90
2018-03-16T01:17:22.913Z,36.10
2018-03-16T01:18:22.927Z,36.20
2018-03-16T01:19:22.953Z,38.20
2018-03-16T01:20:22.964Z,38.70
2018-03-16T01:21:22.985Z,36.40
2018-03-16T01:22:23.008Z,36.40
2018-03-16T01:23:23.028Z,38.60
2018-03-16T01:24:23.035Z,39.00
2018-03-16T01:25:23.064Z,39.50
2018-03-16T01:26:23.074Z,37.30
2018-03-16T01:27:23.104Z,38.30
2018-03-16T01:28:23.117Z,37.40
2018-03-16T01:29:23.134Z,37.70
2018-03-16T01:30:23.151Z,38.10
2018-03-16T01:31:23.175Z,39.60
2018-03-16T01:32:23.194Z,38.10
2018-03-16T01:33:23.206Z,38.40
2018-03-16T01:34:23.224Z,39.10
2018-03-16T01:35:23.251Z,37.60
2018-03-16T01:36:23.267Z,40.30
2018-03-16T01:37:23.283Z,38.10
2018-03-16T01:38:23.301Z,38.20
2018-03-16T01:39:23.323Z,39.50
2018-03-16T01:40:23.348Z,37.80
2018-03-16T01:41:23.354Z,38.30
2018-03-16T01:42:23.382Z,38.30
2018-03-16T01:43:23.393Z,38.90
2018-03-16T01:44:23.413Z,39.00
2018-03-16T01:45:23.436Z,38.10
2018-03-16T01:46:23.454Z,37.80
2018-03-16T01:47:23.469Z,39.40
2018-03-16T01:48:23.485Z,38.00
2018-03-16T01:49:23.516Z,39.00
2018-03-16T01:50:23.531Z,38.70
2018-03-16T01:51:23.541Z,37.90
2018-03-16T01:52:23.568Z,39.80
2018-03-16T01:53:23.579Z,37.10
2018-03-16T01:54:23.603Z,38.90
2018-03-16T01:55:23.629Z,39.50
2018-03-16T01:56:23.634Z,40.60
2018-03-16T01:57:23.656Z,39.10
2018-03-16T01:58:23.673Z,39.30
2018-03-16T01:59:23.699Z,40.10
2018-03-16T02:00:23.715Z,40.40
2018-03-16T02:01:23.731Z,39.40
2018-03-16T02:02:23.749Z,38.80
2018-03-16T02:03:23.771Z,40.90
2018-03-16T02:04:23.791Z,39.60
2018-03-16T02:05:23.803Z,39.70
2018-03-16T02:06:23.827Z,39.50
2018-03-16T02:07:23.843Z,39.20
2018-03-16T02:08:23.864Z,39.80
2018-03-16T02:09:23.887Z,37.00
2018-03-16T02:10:23.905Z,37.30
2018-03-16T02:11:23.920Z,38.90
2018-03-16T02:12:23.942Z,39.80
2018-03-16T02:13:23.952Z,40.30
2018-03-16T02:14:23.974Z,40.50
2018-03-16T02:15:23.994Z,39.10
2018-03-16T02:16:24.011Z,40.10
2018-03-16T02:17:24.033Z,40.40
2018-03-16T02:18:24.046Z,38.60
2018-03-16T02:19:24.073Z,39.60
2018-03-16T02:20:24.082Z,39.90
2018-03-16T02:21:24.110Z,40.40
2018-03-16T02:22:24.123Z,41.50
2018-03-16T02:23:24.148Z,39.60
2018-03-16T02:24:24.160Z,39.20
2018-03-16T02:25:24.176Z,41.00
2018-03-16T02:26:24.195Z,41.50
2018-03-16T02:27:24.223Z,40.90
2018-03-16T02:28:24.231Z,40.60
2018-03-16T02:29:24.259Z,39.10
2018-03-16T02:30:24.281Z,40.90
2018-03-16T02:31:24.291Z,41.40
2018-03-16T02:32:24.311Z,41.60
2018-03-16T02:33:24.367Z,42.60
2018-03-16T02:34:24.352Z,42.90
2018-03-16T02:35:24.367Z,43.00
2018-03-16T02:36:24.390Z,42.70
2018-03-16T02:37:24.400Z,44.00
2018-03-16T02:38:24.424Z,41.40
2018-03-16T02:39:24.440Z,42.30
2018-03-16T02:40:24.508Z,42.50
2018-03-16T02:41:24.477Z,42.80
2018-03-16T02:42:24.504Z,42.40
2018-03-16T02:43:24.519Z,41.50
2018-03-16T02:44:24.532Z,42.00
2018-03-16T02:45:24.555Z,43.10
2018-03-16T02:46:24.570Z,43.20
2018-03-16T02:47:24.591Z,43.00
2018-03-16T02:48:24.613Z,43.70
2018-03-16T02:49:24.622Z,43.60
2018-03-16T02:50:24.642Z,41.20
2018-03-16T02:51:24.670Z,43.70
2018-03-16T02:52:24.686Z,43.70
2018-03-16T02:53:24.700Z,44.00
2018-03-16T02:54:24.726Z,44.10
2018-03-16T02:55:24.741Z,43.20
2018-03-16T02:56:24.762Z,44.40
2018-03-16T02:57:24.773Z,44.90
2018-03-16T02:58:24.791Z,44.50
2018-03-16T02:59:24.818Z,44.90
2018-03-16T03:00:24.827Z,45.10
2018-03-16T03:01:24.848Z,45.40
2018-03-16T03:02:24.866Z,44.80
2018-03-16T03:03:24.893Z,45.70
2018-03-16T03:04:24.900Z,45.40
2018-03-16T03:05:24.929Z,42.80
2018-03-16T03:06:24.942Z,46.40
2018-03-16T03:07:24.963Z,45.30
2018-03-16T03:08:24.978Z,45.10
2018-03-16T03:09:25.010Z,45.30
2018-03-16T03:10:25.019Z,44.40
2018-03-16T03:11:25.034Z,44.40
2018-03-16T03:12:25.049Z,45.30
2018-03-16T03:13:25.076Z,45.60
2018-03-16T03:14:25.095Z,48.10
2018-03-16T03:15:25.112Z,45.70
2018-03-16T03:16:25.132Z,46.60
2018-03-16T03:17:25.147Z,45.50
2018-03-16T03:18:25.170Z,45.40
2018-03-16T03:19:25.180Z,46.60
2018-03-16T03:20:25.206Z,45.30
2018-03-16T03:21:25.215Z,44.70
2018-03-16T03:22:25.241Z,44.90
2018-03-16T03:23:25.256Z,43.60
2018-03-16T03:24:25.276Z,45.10
2018-03-16T03:25:25.293Z,44.20
2018-03-16T03:26:25.311Z,43.80
2018-03-16T03:27:25.332Z,45.60
2018-03-16T03:28:25.348Z,45.30
2018-03-16T03:29:25.365Z,43.70
2018-03-16T03:30:25.384Z,45.10
2018-03-16T03:31:25.410Z,45.50
2018-03-16T03:32:25.419Z,45.10
2018-03-16T03:33:25.447Z,45.10
2018-03-16T03:34:25.456Z,44.50
2018-03-16T03:35:25.483Z,45.50
2018-03-16T03:36:25.499Z,45.40
2018-03-16T03:37:25.514Z,45.80
2018-03-16T03:38:25.533Z,45.40
2018-03-16T03:39:25.554Z,45.60
2018-03-16T03:40:25.573Z,48.00
2018-03-16T03:41:25.585Z,45.70
2018-03-16T03:42:25.610Z,46.30
2018-03-16T03:43:25.631Z,47.30
2018-03-16T03:44:25.641Z,46.90
2018-03-16T03:45:25.659Z,47.20
2018-03-16T03:46:25.686Z,47.20
2018-03-16T03:47:25.702Z,45.30
2018-03-16T03:48:25.716Z,47.30
2018-03-16T03:49:25.739Z,46.50
2018-03-16T03:50:25.760Z,48.70
2018-03-16T03:51:25.775Z,47.80
2018-03-16T03:52:25.790Z,49.50
2018-03-16T03:53:25.812Z,47.20
2018-03-16T03:54:25.832Z,44.90
2018-03-16T03:55:25.846Z,46.40
2018-03-16T03:56:25.862Z,48.30
2018-03-16T03:57:25.888Z,48.80
2018-03-16T03:58:25.898Z,48.40
2018-03-16T03:59:25.925Z,46.90
2018-03-16T04:00:25.935Z,50.50
2018-03-16T04:01:25.964Z,51.00
2018-03-16T04:02:25.974Z,47.50
2018-03-16T04:03:25.995Z,49.50
2018-03-16T04:04:26.014Z,48.50
2018-03-16T04:05:26.032Z,47.90
2018-03-16T04:06:26.048Z,48.10
2018-03-16T04:07:26.069Z,50.40
2018-03-16T04:08:26.090Z,49.60
2018-03-16T04:09:26.102Z,48.50
2018-03-16T04:10:26.118Z,49.40
2018-03-16T04:11:26.146Z,50.30
2018-03-16T04:12:26.160Z,51.00
2018-03-16T04:13:26.177Z,48.60
2018-03-16T04:14:26.195Z,52.30
2018-03-16T04:15:26.216Z,51.20
2018-03-16T04:16:26.236Z,50.90
2018-03-16T04:17:26.248Z,47.40
2018-03-16T04:18:26.265Z,52.30
2018-03-16T04:19:26.293Z,52.60
2018-03-16T04:20:26.307Z,53.80
2018-03-16T04:21:26.323Z,54.00
2018-03-16T04:22:26.345Z,54.10
2018-03-16T04:23:26.359Z,49.00
2018-03-16T04:24:26.374Z,53.10
2018-03-16T04:25:26.403Z,52.70
2018-03-16T04:26:26.421Z,51.30
2018-03-16T04:27:26.430Z,51.00
2018-03-16T04:28:26.450Z,52.10
2018-03-16T04:29:26.472Z,54.40
2018-03-16T04:30:26.486Z,50.60
2018-03-16T04:31:26.512Z,52.10
2018-03-16T04:32:26.527Z,53.20
2018-03-16T04:33:26.544Z,52.60
2018-03-16T04:34:26.558Z,54.00
2018-03-16T04:35:26.582Z,55.50
2018-03-16T04:36:26.602Z,54.80
2018-03-16T04:37:26.613Z,53.60
2018-03-16T04:38:26.639Z,51.30
2018-03-16T04:39:26.650Z,55.10
2018-03-16T04:40:26.676Z,54.20
2018-03-16T04:41:26.686Z,52.70
2018-03-16T04:42:26.710Z,53.60
2018-03-16T04:43:26.728Z,52.60
2018-03-16T04:44:26.748Z,54.20
2018-03-16T04:45:26.762Z,52.20
2018-03-16T04:46:26.786Z,54.10
2018-03-16T04:47:26.796Z,54.10
2018-03-16T04:48:26.822Z,54.60
2018-03-16T04:49:26.832Z,54.10
2018-03-16T04:50:26.857Z,54.20
2018-03-16T04:51:26.872Z,56.60
2018-03-16T04:52:26.892Z,53.40
2018-03-16T04:53:26.908Z,54.40
2018-03-16T04:54:26.924Z,54.20
2018-03-16T04:55:26.952Z,56.10
2018-03-16T04:56:26.959Z,56.10
2018-03-16T04:57:26.987Z,53.40
2018-03-16T04:58:27.000Z,54.50
2018-03-16T04:59:27.021Z,53.40
2018-03-16T05:00:27.035Z,54.10
2018-03-16T05:01:27.057Z,54.90
2018-03-16T05:02:27.072Z,54.50
2018-03-16T05:03:27.096Z,52.80
2018-03-16T05:04:27.110Z,55.20
2018-03-16T05:05:27.133Z,55.50
2018-03-16T05:06:27.146Z,54.20
2018-03-16T05:07:27.167Z,54.30
2018-03-16T05:08:27.182Z,53.60
2018-03-16T05:09:27.203Z,54.00
2018-03-16T05:10:27.220Z,55.90
2018-03-16T05:11:27.240Z,55.80
2018-03-16T05:12:27.255Z,54.50
2018-03-16T05:13:27.275Z,53.50
2018-03-16T05:14:27.289Z,52.50
2018-03-16T05:15:27.319Z,56.10
2018-03-16T05:16:27.326Z,53.30
2018-03-16T05:17:27.357Z,56.20
2018-03-16T05:18:27.369Z,52.60
2018-03-16T05:19:27.386Z,55.50
2018-03-16T05:20:27.406Z,55.60
2018-03-16T05:21:27.416Z,52.50
2018-03-16T05:22:27.436Z,53.00
2018-03-16T05:23:27.461Z,53.20
2018-03-16T05:24:27.476Z,54.90
2018-03-16T05:25:27.492Z,53.20
2018-03-16T05:26:27.509Z,55.50
2018-03-16T05:27:27.539Z,55.60
2018-03-16T05:28:27.549Z,55.10
2018-03-16T05:29:27.566Z,56.10
2018-03-16T05:30:27.585Z,55.60
2018-03-16T05:31:27.605Z,54.70
2018-03-16T05:32:27.626Z,57.40
2018-03-16T05:33:27.636Z,55.50
2018-03-16T05:34:27.653Z,53.60
2018-03-16T05:35:27.684Z,52.10
2018-03-16T05:36:27.695Z,54.00
2018-03-16T05:37:27.711Z,51.90
2018-03-16T05:38:27.728Z,52.80
2018-03-16T05:39:27.754Z,52.10
2018-03-16T05:40:27.769Z,55.50
2018-03-16T05:41:27.783Z,53.70
2018-03-16T05:42:27.802Z,54.50
2018-03-16T05:43:27.823Z,54.90
2018-03-16T05:44:27.842Z,56.90
2018-03-16T05:45:27.852Z,53.90
2018-03-16T05:46:27.871Z,53.60
2018-03-16T05:47:27.897Z,55.20
2018-03-16T05:48:27.912Z,56.40
2018-03-16T05:49:27.929Z,57.70
2018-03-16T05:50:27.951Z,53.00
2018-03-16T05:51:27.963Z,55.70
2018-03-16T05:52:27.989Z,54.00
2018-03-16T05:53:28.001Z,54.10
2018-03-16T05:54:28.021Z,54.50
2018-03-16T05:55:28.037Z,53.70
2018-03-16T05:56:28.061Z,53.90
2018-03-16T05:57:28.073Z,55.00
2018-03-16T05:58:28.094Z,53.70
2018-03-16T05:59:28.111Z,52.80
2018-03-16T06:00:28.131Z,53.20
2018-03-16T06:01:28.145Z,53.80
2018-03-16T06:02:28.169Z,52.20
2018-03-16T06:03:28.180Z,50.80
2018-03-16T06:04:28.205Z,52.80
2018-03-16T06:05:28.216Z,54.10
2018-03-16T06:06:28.234Z,52.80
2018-03-16T06:07:28.260Z,54.20
2018-03-16T06:08:28.274Z,53.30
2018-03-16T06:09:28.290Z,52.80
2018-03-16T06:10:28.314Z,52.00
2018-03-16T06:11:28.343Z,53.60
2018-03-16T06:12:28.344Z,52.90
2018-03-16T06:13:28.361Z,54.00
2018-03-16T06:14:28.382Z,52.30
2018-03-16T06:15:28.402Z,52.90
2018-03-16T06:16:28.422Z,53.90
2018-03-16T06:17:28.432Z,52.30
2018-03-16T06:18:28.451Z,52.90
2018-03-16T06:19:28.519Z,53.20
2018-03-16T06:20:28.492Z,51.90
2018-03-16T06:21:28.507Z,54.60
2018-03-16T06:22:28.531Z,51.70
2018-03-16T06:23:28.542Z,52.70
2018-03-16T06:24:28.568Z,52.20
2018-03-16T06:25:28.577Z,52.00
2018-03-16T06:26:28.601Z,52.10
2018-03-16T06:27:28.622Z,51.50
2018-03-16T06:28:28.631Z,50.60
2018-03-16T06:29:28.652Z,52.40
2018-03-16T06:30:28.674Z,50.60
2018-03-16T06:31:28.689Z,50.30
2018-03-16T06:32:28.704Z,53.30
2018-03-16T06:33:28.730Z,51.40
2018-03-16T06:34:28.801Z,52.30
2018-03-16T06:35:28.763Z,51.60
2018-03-16T06:36:28.779Z,51.60
2018-03-16T06:37:28.800Z,51.80
2018-03-16T06:38:28.818Z,53.30
2018-03-16T06:39:28.834Z,52.20
2018-03-16T06:40:28.849Z,52.70
2018-03-16T06:41:28.870Z,54.00
2018-03-16T06:42:28.894Z,53.90
2018-03-16T06:43:28.911Z,53.50
2018-03-16T06:44:28.925Z,53.20
2018-03-16T06:45:28.947Z,54.70
2018-03-16T06:46:28.962Z,53.90
2018-03-16T06:47:29.041Z,51.80
2018-03-16T06:48:28.999Z,52.80
2018-03-16T06:49:29.641Z,51.20
2018-03-16T06:50:29.034Z,50.70
2018-03-16T06:51:29.062Z,53.30
2018-03-16T06:52:29.068Z,55.50
2018-03-16T06:53:29.096Z,55.20
2018-03-16T06:54:29.114Z,52.10
2018-03-16T06:55:29.127Z,52.30
2018-03-16T06:56:29.171Z,53.10
2018-03-16T06:57:29.166Z,54.90
2018-03-16T06:58:29.184Z,54.10
2018-03-16T06:59:29.206Z,52.50
2018-03-16T07:00:29.221Z,53.40
2018-03-16T07:01:29.236Z,53.50
2018-03-16T07:02:29.257Z,53.70
2018-03-16T07:03:29.273Z,50.10
2018-03-16T07:04:29.294Z,50.00
2018-03-16T07:05:29.309Z,51.00
2018-03-16T07:06:29.335Z,51.60
2018-03-16T07:07:29.344Z,52.40
2018-03-16T07:08:29.370Z,51.20
2018-03-16T07:09:29.379Z,49.70
2018-03-16T07:10:29.398Z,50.20
2018-03-16T07:11:29.424Z,50.30
2018-03-16T07:12:29.436Z,52.60
2018-03-16T07:13:29.455Z,51.50
2018-03-16T07:14:29.473Z,50.20
2018-03-16T07:15:29.489Z,51.80
2018-03-16T07:16:29.509Z,51.80
2018-03-16T07:17:29.559Z,51.00
2018-03-16T07:18:29.553Z,51.40
2018-03-16T07:19:29.563Z,53.80
2018-03-16T07:20:29.589Z,53.70
2018-03-16T07:21:29.597Z,51.50
2018-03-16T07:22:29.622Z,49.10
2018-03-16T07:23:29.639Z,52.00
2018-03-16T07:24:29.658Z,51.00
2018-03-16T07:25:29.677Z,50.10
2018-03-16T07:26:29.697Z,52.80
2018-03-16T07:27:29.708Z,53.60
2018-03-16T07:28:29.728Z,50.20
2018-03-16T07:29:29.745Z,49.50
2018-03-16T07:30:29.766Z,51.90
2018-03-16T07:31:29.789Z,52.30
2018-03-16T07:32:29.797Z,50.70
2018-03-16T07:33:29.824Z,53.80
2018-03-16T07:34:29.851Z,52.90
2018-03-16T07:35:29.861Z,52.30
2018-03-16T07:36:29.876Z,50.20
2018-03-16T07:37:29.891Z,50.40
2018-03-16T07:38:29.909Z,51.90
2018-03-16T07:39:29.931Z,49.80
2018-03-16T07:40:29.952Z,54.50
2018-03-16T07:41:29.960Z,52.00
2018-03-16T07:42:29.985Z,54.20
2018-03-16T07:43:30.001Z,54.10
2018-03-16T07:44:30.015Z,55.00
2018-03-16T07:45:30.036Z,53.40
2018-03-16T07:46:30.061Z,54.30
2018-03-16T07:47:30.078Z,52.70
2018-03-16T07:48:30.092Z,50.50
2018-03-16T07:49:30.113Z,52.30
2018-03-16T07:50:30.128Z,51.20
2018-03-16T07:51:30.150Z,53.80
2018-03-16T07:52:30.169Z,51.70
2018-03-16T07:53:30.182Z,52.50
2018-03-16T07:54:30.198Z,49.50
2018-03-16T07:55:30.228Z,48.80
2018-03-16T07:56:30.239Z,46.50
2018-03-16T07:57:30.255Z,49.50
2018-03-16T07:58:30.279Z,48.40
2018-03-16T07:59:30.289Z,46.90
2018-03-16T08:00:30.314Z,47.20
2018-03-16T08:01:30.330Z,48.00
2018-03-16T08:02:30.348Z,46.30
2018-03-16T08:03:30.369Z,48.10
2018-03-16T08:04:30.384Z,46.40
2018-03-16T08:05:30.400Z,47.40
2018-03-16T08:06:30.415Z,46.60
2018-03-16T08:07:30.444Z,49.00
2018-03-16T08:08:30.452Z,49.30
2018-03-16T08:09:30.479Z,48.80
2018-03-16T08:10:30.491Z,49.60
2018-03-16T08:11:30.512Z,50.00
2018-03-16T08:12:30.527Z,50.20
2018-03-16T08:13:30.549Z,48.70
2018-03-16T08:14:30.564Z,49.20
2018-03-16T08:15:30.585Z,48.70
2018-03-16T08:16:30.607Z,46.70
2018-03-16T08:17:30.614Z,45.80
2018-03-16T08:18:30.634Z,44.70
2018-03-16T08:19:30.660Z,46.70
2018-03-16T08:20:30.675Z,46.00
2018-03-16T08:21:30.690Z,44.40
2018-03-16T08:22:30.752Z,44.30
2018-03-16T08:23:30.733Z,43.30
2018-03-16T08:24:30.748Z,43.90
2018-03-16T08:25:30.763Z,41.70
2018-03-16T08:26:30.781Z,42.90
2018-03-16T08:27:30.803Z,41.50
2018-03-16T08:28:30.823Z,40.90
2018-03-16T08:29:30.847Z,41.70
2018-03-16T08:30:30.857Z,41.00
2018-03-16T08:31:30.873Z,39.00
2018-03-16T08:32:30.896Z,39.80
2018-03-16T08:33:30.908Z,39.50
2018-03-16T08:34:30.933Z,40.10
2018-03-16T08:35:30.941Z,40.70
2018-03-16T08:36:30.967Z,39.50
2018-03-16T08:37:30.978Z,37.50
2018-03-16T08:38:31.008Z,38.20
2018-03-16T08:39:31.014Z,36.90
2018-03-16T08:40:31.039Z,39.30
2018-03-16T08:41:31.051Z,39.10
2018-03-16T08:42:31.074Z,37.20
2018-03-16T08:43:31.088Z,38.60
2018-03-16T08:44:31.109Z,37.60
2018-03-16T08:45:31.130Z,38.10
2018-03-16T08:46:31.143Z,38.80
2018-03-16T08:47:31.164Z,38.10
2018-03-16T08:48:31.184Z,39.20
2018-03-16T08:49:31.200Z,40.20
2018-03-16T08:50:31.212Z,40.80
2018-03-16T08:51:31.239Z,38.40
2018-03-16T08:52:31.249Z,40.90
2018-03-16T08:53:31.275Z,40.00
2018-03-16T08:54:31.287Z,41.30
2018-03-16T08:55:31.311Z,42.20
2018-03-16T08:56:31.320Z,41.10
2018-03-16T08:57:31.350Z,41.80
2018-03-16T08:58:31.361Z,41.00
2018-03-16T08:59:31.381Z,39.20
2018-03-16T09:00:31.397Z,40.80
2018-03-16T09:01:31.416Z,39.80
2018-03-16T09:02:31.429Z,38.20
2018-03-16T09:03:31.456Z,38.70
2018-03-16T09:04:31.470Z,40.30
2018-03-16T09:05:31.485Z,38.30
2018-03-16T09:06:31.510Z,38.70
2018-03-16T09:07:31.525Z,40.50
2018-03-16T09:08:31.544Z,38.70
2018-03-16T09:09:31.556Z,38.40
2018-03-16T09:10:31.577Z,39.70
2018-03-16T09:11:31.597Z,37.40
2018-03-16T09:12:31.676Z,39.50
2018-03-16T09:13:31.630Z,35.90
2018-03-16T09:14:31.647Z,35.70
2018-03-16T09:15:31.674Z,37.60
2018-03-16T09:16:31.688Z,38.80
2018-03-16T09:17:31.701Z,37.50
2018-03-16T09:18:31.727Z,36.00
2018-03-16T09:19:31.737Z,36.20
2018-03-16T09:20:31.766Z,36.70
2018-03-16T09:21:31.774Z,38.40
2018-03-16T09:22:31.798Z,37.10
2018-03-16T09:23:31.813Z,38.40
2018-03-16T09:24:31.832Z,40.00
2018-03-16T09:25:31.905Z,41.70
2018-03-16T09:26:31.863Z,41.60
2018-03-16T09:27:31.890Z,39.20
2018-03-16T09:28:31.905Z,38.70
2018-03-16T09:29:31.920Z,37.50
2018-03-16T09:30:31.940Z,36.80
2018-03-16T09:31:31.959Z,37.40
2018-03-16T09:32:31.981Z,36.50
2018-03-16T09:33:31.989Z,37.00
2018-03-16T09:34:32.008Z,34.10
2018-03-16T09:35:32.038Z,33.10
2018-03-16T09:36:32.044Z,32.20
2018-03-16T09:37:32.070Z,32.30
2018-03-16T09:38:32.086Z,31.70
2018-03-16T09:39:32.104Z,30.90
2018-03-16T09:40:32.119Z,32.50
2018-03-16T09:41:32.140Z,31.80
2018-03-16T09:42:32.162Z,32.30
2018-03-16T09:43:32.171Z,30.70
2018-03-16T09:44:32.196Z,31.30
2018-03-16T09:45:32.208Z,32.60
2018-03-16T09:46:32.231Z,32.00
2018-03-16T09:47:32.250Z,30.10
2018-03-16T09:48:32.266Z,28.20
2018-03-16T09:49:32.281Z,29.20
2018-03-16T09:50:32.300Z,28.20
2018-03-16T09:51:32.321Z,29.20
2018-03-16T09:52:32.344Z,28.30
2018-03-16T09:53:32.351Z,28.30
2018-03-16T09:54:32.370Z,27.90
2018-03-16T09:55:32.395Z,30.50
2018-03-16T09:56:32.410Z,29.80
2018-03-16T09:57:32.426Z,31.40
2018-03-16T09:58:32.440Z,31.30
2018-03-16T09:59:32.468Z,27.80
2018-03-16T10:00:32.477Z,28.20
2018-03-16T10:01:32.503Z,28.00
2018-03-16T10:02:32.515Z,27.90
2018-03-16T10:03:32.536Z,27.90
2018-03-16T10:04:32.555Z,29.30
2018-03-16T10:05:32.571Z,25.90
2018-03-16T10:06:32.590Z,27.10
2018-03-16T10:07:32.606Z,26.70
2018-03-16T10:08:32.619Z,24.40
2018-03-16T10:09:32.646Z,26.00
2018-03-16T10:10:32.668Z,25.20
2018-03-16T10:11:32.689Z,26.90
2018-03-16T10:12:32.703Z,25.30
2018-03-16T10:13:32.736Z,24.90
2018-03-16T10:14:32.731Z,24.40
2018-03-16T10:15:32.839Z,23.80
2018-03-16T10:16:32.771Z,23.70
2018-03-16T10:17:32.781Z,24.30
2018-03-16T10:18:32.800Z,22.60
2018-03-16T10:19:32.825Z,23.50
2018-03-16T10:20:32.904Z,23.80
2018-03-16T10:21:32.855Z,23.80
2018-03-16T10:22:32.873Z,24.40
2018-03-16T10:23:32.894Z,23.60
2018-03-16T10:24:32.914Z,23.90
2018-03-16T10:25:32.925Z,24.20
2018-03-16T10:26:32.942Z,24.60
2018-03-16T10:27:32.968Z,24.10
2018-03-16T10:28:32.982Z,21.60
2018-03-16T10:29:32.997Z,22.20
2018-03-16T10:30:33.089Z,23.00
2018-03-16T10:31:33.039Z,22.20
2018-03-16T10:32:33.053Z,23.60
2018-03-16T10:33:33.100Z,23.00
2018-03-16T10:34:33.089Z,22.70
2018-03-16T10:35:33.106Z,23.10
2018-03-16T10:36:33.125Z,23.70
2018-03-16T10:37:33.137Z,25.40
2018-03-16T10:38:33.155Z,23.50
2018-03-16T10:39:33.184Z,24.10
2018-03-16T10:40:33.193Z,23.30
2018-03-16T10:41:33.216Z,25.20
2018-03-16T10:42:33.228Z,23.50
2018-03-16T10:43:33.250Z,23.80
2018-03-16T10:44:33.263Z,23.70
2018-03-16T10:45:33.283Z,22.40
2018-03-16T10:46:33.306Z,23.10
2018-03-16T10:47:33.320Z,23.10
2018-03-16T10:48:33.378Z,22.70
2018-03-16T10:49:33.356Z,22.40
2018-03-16T10:50:33.367Z,21.80
2018-03-16T10:51:33.395Z,21.50
2018-03-16T10:52:33.413Z,20.80
2018-03-16T10:53:33.430Z,23.50
2018-03-16T10:54:33.447Z,23.50
2018-03-16T10:55:33.457Z,22.70
2018-03-16T10:56:33.483Z,22.90
2018-03-16T10:57:33.492Z,23.20
2018-03-16T10:58:33.520Z,23.90
2018-03-16T10:59:33.531Z,24.30
2018-03-16T11:00:33.552Z,23.10
2018-03-16T11:01:33.566Z,23.50
2018-03-16T11:02:33.600Z,23.20
2018-03-16T11:03:33.601Z,22.20
2018-03-16T11:04:33.616Z,22.70
2018-03-16T11:05:33.638Z,21.90
2018-03-16T11:06:33.661Z,21.40
2018-03-16T11:07:33.670Z,21.60
2018-03-16T11:08:33.691Z,22.80
2018-03-16T11:09:33.712Z,21.90
2018-03-16T11:10:33.724Z,21.60
2018-03-16T11:11:33.756Z,22.60
2018-03-16T11:12:33.764Z,21.50
2018-03-16T11:13:33.811Z,22.40
2018-03-16T11:14:33.798Z,22.80
2018-03-16T11:15:33.874Z,22.90
2018-03-16T11:16:33.839Z,21.80
2018-03-16T11:17:33.849Z,22.30
2018-03-16T11:18:33.876Z,22.80
2018-03-16T11:19:33.895Z,21.40
2018-03-16T11:20:33.905Z,21.60
2018-03-16T11:21:33.924Z,22.90
2018-03-16T11:22:33.969Z,20.40
2018-03-16T11:23:34.020Z,21.00
2018-03-16T11:24:33.973Z,19.80
2018-03-16T11:25:34.052Z,21.30
2018-03-16T11:26:34.012Z,20.80
2018-03-16T11:27:34.033Z,19.50
2018-03-16T11:28:34.074Z,19.00
2018-03-16T11:29:34.100Z,17.80
2018-03-16T11:30:34.081Z,18.70
2018-03-16T11:31:34.123Z,19.80
2018-03-16T11:32:34.155Z,20.40
2018-03-16T11:33:34.143Z,19.70
2018-03-16T11:34:34.180Z,21.00
2018-03-16T11:35:34.178Z,19.50
2018-03-16T11:36:34.193Z,19.60
2018-03-16T11:37:34.239Z,18.60
2018-03-16T11:38:34.252Z,18.80
2018-03-16T11:39:34.247Z,17.50
2018-03-16T11:40:34.329Z,17.90
2018-03-16T11:41:34.276Z,18.30
2018-03-16T11:42:34.321Z,18.80
2018-03-16T11:43:34.354Z,18.60
2018-03-16T11:44:34.335Z,18.80
2018-03-16T11:45:34.351Z,18.40
2018-03-16T11:46:34.375Z,18.10
2018-03-16T11:47:34.386Z,16.70
2018-03-16T11:48:34.413Z,16.90
2018-03-16T11:49:34.418Z,17.00
2018-03-16T11:50:34.449Z,17.70
2018-03-16T11:51:34.461Z,16.60
2018-03-16T11:52:34.475Z,18.40
2018-03-16T11:53:34.496Z,17.50
2018-03-16T11:54:34.510Z,17.60
2018-03-16T11:55:34.536Z,18.50
2018-03-16T11:56:34.552Z,17.70
2018-03-16T11:57:34.567Z,18.40
2018-03-16T11:58:34.586Z,17.80
2018-03-16T11:59:34.605Z,18.70
2018-03-16T12:00:34.624Z,17.50
2018-03-16T12:01:34.633Z,17.30
2018-03-16T12:02:34.652Z,18.10
2018-03-16T12:03:34.678Z,18.70
2018-03-16T12:04:34.693Z,19.40
2018-03-16T12:05:34.707Z,19.40
2018-03-16T12:06:34.722Z,18.70
2018-03-16T12:07:34.746Z,17.30
2018-03-16T12:08:34.758Z,18.10
2018-03-16T12:09:34.781Z,18.70
2018-03-16T12:10:34.802Z,18.20
2018-03-16T12:11:34.813Z,18.30
2018-03-16T12:12:34.832Z,19.00
2018-03-16T12:13:34.853Z,17.90
2018-03-16T12:14:34.871Z,18.90
2018-03-16T12:15:34.885Z,19.50
2018-03-16T12:16:34.901Z,19.70
2018-03-16T12:17:34.927Z,17.70
2018-03-16T12:18:34.955Z,18.00
2018-03-16T12:19:34.955Z,18.40
2018-03-16T12:20:34.974Z,17.20
2018-03-16T12:21:35.005Z,17.50
2018-03-16T12:22:35.017Z,16.80
2018-03-16T12:23:35.031Z,16.60
2018-03-16T12:24:35.046Z,17.50
2018-03-16T12:25:35.063Z,17.30
2018-03-16T12:26:35.079Z,16.40
2018-03-16T12:27:35.107Z,16.80
2018-03-16T12:28:49.522Z,17.10
2018-03-16T12:29:35.141Z,16.80
2018-03-16T12:30:35.152Z,17.10
2018-03-16T12:31:35.177Z,16.30
2018-03-16T12:32:35.192Z,17.10
2018-03-16T12:33:35.208Z,17.10
2018-03-16T12:34:35.225Z,17.50
2018-03-16T12:35:35.247Z,17.30
2018-03-16T12:36:35.266Z,17.20
2018-03-16T12:37:35.276Z,17.50
2018-03-16T12:38:35.315Z,17.90
2018-03-16T12:39:35.317Z,17.00
2018-03-16T12:40:35.333Z,17.90
2018-03-16T12:41:35.354Z,18.00
2018-03-16T12:42:35.366Z,18.70
2018-03-16T12:43:35.424Z,18.50
2018-03-16T12:44:35.401Z,18.80
2018-03-16T12:45:35.426Z,18.40
2018-03-16T12:46:35.444Z,17.90
2018-03-16T12:47:35.453Z,17.50
2018-03-16T12:48:35.473Z,19.30
2018-03-16T12:49:35.494Z,19.20
2018-03-16T12:50:35.512Z,18.40
2018-03-16T12:51:42.121Z,19.00
2018-03-16T12:52:35.542Z,17.70